Terminal Aerodrome Forecast
Issued by NWS Cleveland, OH

Home | Current Version | Previous Version | Graphics & Text | Print | Product List | Glossary Off
Versions: 1 2 3 4 5 6 7 8 9 10 11 12 13 14 15 16 17 18 19 20

000
FTUS41 KCLE 271100
TAFYNG
TAF
KYNG 271139Z 2712/2812 30004KT 4SM BR BKN008 OVC015
     FM271430 34006KT P6SM BKN015
     FM271900 35008KT P6SM SCT030
     FM280000 02005KT P6SM SCT250
     FM281100 VRB03KT 5SM BR SCT250=

USA.gov is the U.S. government's official web portal to all federal, state and local government web resources and services.